sensor_id;sensor_type;location;lat;lon;timestamp;pressure;altitude;pressure_sealevel;temperature
80496;BMP180;69819;48.798;11.770;2023-07-22T00:01:02;97462.00;;;18.40
80496;BMP180;69819;48.798;11.770;2023-07-22T00:03:28;97513.00;;;18.40
80496;BMP180;69819;48.798;11.770;2023-07-22T00:06:09;97502.00;;;18.30
80496;BMP180;69819;48.798;11.770;2023-07-22T00:08:38;97511.00;;;18.30
80496;BMP180;69819;48.798;11.770;2023-07-22T00:11:07;97511.00;;;18.30
80496;BMP180;69819;48.798;11.770;2023-07-22T00:13:34;97510.00;;;18.30
80496;BMP180;69819;48.798;11.770;2023-07-22T00:16:00;97475.00;;;18.30
80496;BMP180;69819;48.798;11.770;2023-07-22T00:18:28;97494.00;;;18.20
80496;BMP180;69819;48.798;11.770;2023-07-22T00:20:55;97516.00;;;18.20
80496;BMP180;69819;48.798;11.770;2023-07-22T00:23:21;97468.00;;;18.20
80496;BMP180;69819;48.798;11.770;2023-07-22T00:25:47;97498.00;;;18.10
80496;BMP180;69819;48.798;11.770;2023-07-22T00:28:14;97513.00;;;18.10
80496;BMP180;69819;48.798;11.770;2023-07-22T00:30:40;97470.00;;;18.10
80496;BMP180;69819;48.798;11.770;2023-07-22T00:33:07;97494.00;;;18.00
80496;BMP180;69819;48.798;11.770;2023-07-22T00:35:34;97488.00;;;18.00
80496;BMP180;69819;48.798;11.770;2023-07-22T00:38:03;97462.00;;;18.00
80496;BMP180;69819;48.798;11.770;2023-07-22T00:40:29;97502.00;;;18.00
80496;BMP180;69819;48.798;11.770;2023-07-22T00:42:58;97477.00;;;17.90
80496;BMP180;69819;48.798;11.770;2023-07-22T00:45:25;97489.00;;;17.90
80496;BMP180;69819;48.798;11.770;2023-07-22T00:47:50;97483.00;;;17.90
80496;BMP180;69819;48.798;11.770;2023-07-22T00:50:16;97493.00;;;17.80
80496;BMP180;69819;48.798;11.770;2023-07-22T00:52:42;97490.00;;;17.80
80496;BMP180;69819;48.798;11.770;2023-07-22T00:55:09;97431.00;;;17.80
80496;BMP180;69819;48.798;11.770;2023-07-22T00:57:36;97483.00;;;17.80
80496;BMP180;69819;48.798;11.770;2023-07-22T01:00:04;97482.00;;;17.70
80496;BMP180;69819;48.798;11.770;2023-07-22T01:02:31;97469.00;;;17.70
80496;BMP180;69819;48.798;11.770;2023-07-22T01:04:57;97462.00;;;17.70
80496;BMP180;69819;48.798;11.770;2023-07-22T01:07:23;97475.00;;;17.70
80496;BMP180;69819;48.798;11.770;2023-07-22T01:09:57;97473.00;;;17.60
80496;BMP180;69819;48.798;11.770;2023-07-22T01:12:24;97475.00;;;17.60
80496;BMP180;69819;48.798;11.770;2023-07-22T01:14:50;97475.00;;;17.60
80496;BMP180;69819;48.798;11.770;2023-07-22T01:17:16;97480.00;;;17.60
80496;BMP180;69819;48.798;11.770;2023-07-22T01:19:43;97488.00;;;17.60
80496;BMP180;69819;48.798;11.770;2023-07-22T01:22:10;97472.00;;;17.50
80496;BMP180;69819;48.798;11.770;2023-07-22T01:24:38;97478.00;;;17.50
80496;BMP180;69819;48.798;11.770;2023-07-22T01:27:05;97473.00;;;17.40
80496;BMP180;69819;48.798;11.770;2023-07-22T01:29:35;97438.00;;;17.50
80496;BMP180;69819;48.798;11.770;2023-07-22T01:32:02;97464.00;;;17.40
80496;BMP180;69819;48.798;11.770;2023-07-22T01:34:28;97469.00;;;17.40
80496;BMP180;69819;48.798;11.770;2023-07-22T01:36:55;97474.00;;;17.40
80496;BMP180;69819;48.798;11.770;2023-07-22T01:39:21;97462.00;;;17.40
80496;BMP180;69819;48.798;11.770;2023-07-22T01:41:47;97445.00;;;17.30
80496;BMP180;69819;48.798;11.770;2023-07-22T01:44:14;97431.00;;;17.30
80496;BMP180;69819;48.798;11.770;2023-07-22T01:46:41;97476.00;;;17.30
80496;BMP180;69819;48.798;11.770;2023-07-22T01:49:12;97466.00;;;17.20
80496;BMP180;69819;48.798;11.770;2023-07-22T01:51:39;97485.00;;;17.20
80496;BMP180;69819;48.798;11.770;2023-07-22T01:54:08;97451.00;;;17.20
80496;BMP180;69819;48.798;11.770;2023-07-22T01:56:38;97500.00;;;17.10
80496;BMP180;69819;48.798;11.770;2023-07-22T01:59:05;97503.00;;;17.10
80496;BMP180;69819;48.798;11.770;2023-07-22T02:01:32;97493.00;;;17.10
80496;BMP180;69819;48.798;11.770;2023-07-22T02:03:58;97499.00;;;17.10
80496;BMP180;69819;48.798;11.770;2023-07-22T02:06:24;97489.00;;;17.10
80496;BMP180;69819;48.798;11.770;2023-07-22T02:08:50;97473.00;;;17.10
80496;BMP180;69819;48.798;11.770;2023-07-22T02:11:17;97457.00;;;17.10
80496;BMP180;69819;48.798;11.770;2023-07-22T02:13:43;97489.00;;;17.00
80496;BMP180;69819;48.798;11.770;2023-07-22T02:16:09;97488.00;;;17.00
80496;BMP180;69819;48.798;11.770;2023-07-22T02:18:38;97500.00;;;17.00
80496;BMP180;69819;48.798;11.770;2023-07-22T02:21:04;97497.00;;;17.00
80496;BMP180;69819;48.798;11.770;2023-07-22T02:23:29;97489.00;;;16.90
80496;BMP180;69819;48.798;11.770;2023-07-22T02:25:55;97435.00;;;16.90
80496;BMP180;69819;48.798;11.770;2023-07-22T02:28:22;97487.00;;;16.90
80496;BMP180;69819;48.798;11.770;2023-07-22T02:30:51;97496.00;;;16.80
80496;BMP180;69819;48.798;11.770;2023-07-22T02:33:19;97495.00;;;16.80
80496;BMP180;69819;48.798;11.770;2023-07-22T02:35:47;97457.00;;;16.80
80496;BMP180;69819;48.798;11.770;2023-07-22T02:38:13;97495.00;;;16.70
80496;BMP180;69819;48.798;11.770;2023-07-22T02:40:40;97495.00;;;16.70
80496;BMP180;69819;48.798;11.770;2023-07-22T02:43:06;97452.00;;;16.70
80496;BMP180;69819;48.798;11.770;2023-07-22T02:45:34;97499.00;;;16.70
80496;BMP180;69819;48.798;11.770;2023-07-22T02:48:00;97496.00;;;16.60
80496;BMP180;69819;48.798;11.770;2023-07-22T02:50:26;97498.00;;;16.60
80496;BMP180;69819;48.798;11.770;2023-07-22T02:52:52;97486.00;;;16.60
80496;BMP180;69819;48.798;11.770;2023-07-22T02:55:18;97495.00;;;16.60
80496;BMP180;69819;48.798;11.770;2023-07-22T02:57:45;97443.00;;;16.50
80496;BMP180;69819;48.798;11.770;2023-07-22T03:00:13;97502.00;;;16.60
80496;BMP180;69819;48.798;11.770;2023-07-22T03:02:42;97503.00;;;16.60
80496;BMP180;69819;48.798;11.770;2023-07-22T03:05:09;97490.00;;;16.50
80496;BMP180;69819;48.798;11.770;2023-07-22T03:07:39;97511.00;;;16.50
80496;BMP180;69819;48.798;11.770;2023-07-22T03:10:06;97504.00;;;16.50
80496;BMP180;69819;48.798;11.770;2023-07-22T03:12:34;97509.00;;;16.50
80496;BMP180;69819;48.798;11.770;2023-07-22T03:15:00;97514.00;;;16.50
80496;BMP180;69819;48.798;11.770;2023-07-22T03:17:26;97521.00;;;16.40
80496;BMP180;69819;48.798;11.770;2023-07-22T03:19:52;97518.00;;;16.40
80496;BMP180;69819;48.798;11.770;2023-07-22T03:22:18;97498.00;;;16.40
80496;BMP180;69819;48.798;11.770;2023-07-22T03:24:47;97521.00;;;16.30
80496;BMP180;69819;48.798;11.770;2023-07-22T03:27:14;97525.00;;;16.30
80496;BMP180;69819;48.798;11.770;2023-07-22T03:29:41;97502.00;;;16.30
80496;BMP180;69819;48.798;11.770;2023-07-22T03:32:07;97493.00;;;16.20
80496;BMP180;69819;48.798;11.770;2023-07-22T03:34:35;97526.00;;;16.20
80496;BMP180;69819;48.798;11.770;2023-07-22T03:37:00;97483.00;;;16.20
80496;BMP180;69819;48.798;11.770;2023-07-22T03:39:26;97524.00;;;16.20
80496;BMP180;69819;48.798;11.770;2023-07-22T03:41:52;97538.00;;;16.10
80496;BMP180;69819;48.798;11.770;2023-07-22T03:44:18;97491.00;;;16.10
80496;BMP180;69819;48.798;11.770;2023-07-22T03:46:44;97524.00;;;16.10
80496;BMP180;69819;48.798;11.770;2023-07-22T03:49:10;97522.00;;;16.10
80496;BMP180;69819;48.798;11.770;2023-07-22T03:51:35;97482.00;;;16.10
80496;BMP180;69819;48.798;11.770;2023-07-22T03:54:01;97524.00;;;16.10
80496;BMP180;69819;48.798;11.770;2023-07-22T03:56:27;97489.00;;;16.10
80496;BMP180;69819;48.798;11.770;2023-07-22T03:58:53;97536.00;;;16.10
80496;BMP180;69819;48.798;11.770;2023-07-22T04:01:19;97494.00;;;16.20
80496;BMP180;69819;48.798;11.770;2023-07-22T04:03:45;97534.00;;;16.20
80496;BMP180;69819;48.798;11.770;2023-07-22T04:06:11;97538.00;;;16.30
80496;BMP180;69819;48.798;11.770;2023-07-22T04:08:37;97545.00;;;16.50
80496;BMP180;69819;48.798;11.770;2023-07-22T04:11:03;97536.00;;;16.60
80496;BMP180;69819;48.798;11.770;2023-07-22T04:13:29;97543.00;;;16.80
80496;BMP180;69819;48.798;11.770;2023-07-22T04:15:55;97536.00;;;17.00
80496;BMP180;69819;48.798;11.770;2023-07-22T04:18:21;97539.00;;;17.20
80496;BMP180;69819;48.798;11.770;2023-07-22T04:20:47;97524.00;;;17.50
80496;BMP180;69819;48.798;11.770;2023-07-22T04:23:14;97540.00;;;17.80
80496;BMP180;69819;48.798;11.770;2023-07-22T04:25:44;97539.00;;;18.10
80496;BMP180;69819;48.798;11.770;2023-07-22T04:28:11;97529.00;;;18.40
80496;BMP180;69819;48.798;11.770;2023-07-22T04:30:38;97538.00;;;18.80
80496;BMP180;69819;48.798;11.770;2023-07-22T04:33:05;97541.00;;;19.10
80496;BMP180;69819;48.798;11.770;2023-07-22T04:35:40;97548.00;;;19.50
80496;BMP180;69819;48.798;11.770;2023-07-22T04:38:07;97537.00;;;19.90
80496;BMP180;69819;48.798;11.770;2023-07-22T04:40:33;97551.00;;;20.30
80496;BMP180;69819;48.798;11.770;2023-07-22T04:42:58;97550.00;;;20.70
80496;BMP180;69819;48.798;11.770;2023-07-22T04:45:24;97542.00;;;21.10
80496;BMP180;69819;48.798;11.770;2023-07-22T04:47:51;97548.00;;;21.50
80496;BMP180;69819;48.798;11.770;2023-07-22T04:50:17;97546.00;;;21.90
80496;BMP180;69819;48.798;11.770;2023-07-22T04:52:46;97557.00;;;22.40
80496;BMP180;69819;48.798;11.770;2023-07-22T04:55:14;97568.00;;;22.80
80496;BMP180;69819;48.798;11.770;2023-07-22T04:57:41;97574.00;;;23.10
80496;BMP180;69819;48.798;11.770;2023-07-22T05:00:14;97566.00;;;23.40
80496;BMP180;69819;48.798;11.770;2023-07-22T05:02:46;97524.00;;;23.60
80496;BMP180;69819;48.798;11.770;2023-07-22T05:05:16;97566.00;;;24.00
80496;BMP180;69819;48.798;11.770;2023-07-22T05:07:42;97562.00;;;24.30
80496;BMP180;69819;48.798;11.770;2023-07-22T05:10:09;97563.00;;;24.70
80496;BMP180;69819;48.798;11.770;2023-07-22T05:12:38;97560.00;;;25.10
80496;BMP180;69819;48.798;11.770;2023-07-22T05:15:06;97566.00;;;25.50
80496;BMP180;69819;48.798;11.770;2023-07-22T05:17:33;97542.00;;;26.00
80496;BMP180;69819;48.798;11.770;2023-07-22T05:19:59;97552.00;;;26.40
80496;BMP180;69819;48.798;11.770;2023-07-22T05:22:25;97566.00;;;26.90
80496;BMP180;69819;48.798;11.770;2023-07-22T05:24:51;97568.00;;;27.30
80496;BMP180;69819;48.798;11.770;2023-07-22T05:27:17;97566.00;;;27.80
80496;BMP180;69819;48.798;11.770;2023-07-22T05:29:44;97570.00;;;28.20
80496;BMP180;69819;48.798;11.770;2023-07-22T05:32:11;97575.00;;;28.70
80496;BMP180;69819;48.798;11.770;2023-07-22T05:34:37;97570.00;;;29.10
80496;BMP180;69819;48.798;11.770;2023-07-22T05:37:03;97576.00;;;29.50
80496;BMP180;69819;48.798;11.770;2023-07-22T05:39:29;97574.00;;;29.90
80496;BMP180;69819;48.798;11.770;2023-07-22T05:41:54;97584.00;;;30.30
80496;BMP180;69819;48.798;11.770;2023-07-22T05:44:21;97593.00;;;30.70
80496;BMP180;69819;48.798;11.770;2023-07-22T05:46:47;97596.00;;;31.10
80496;BMP180;69819;48.798;11.770;2023-07-22T05:49:12;97590.00;;;31.50
80496;BMP180;69819;48.798;11.770;2023-07-22T05:51:38;97607.00;;;31.90
80496;BMP180;69819;48.798;11.770;2023-07-22T05:54:04;97587.00;;;32.30
80496;BMP180;69819;48.798;11.770;2023-07-22T05:56:30;97583.00;;;32.60
80496;BMP180;69819;48.798;11.770;2023-07-22T05:58:57;97605.00;;;33.00
80496;BMP180;69819;48.798;11.770;2023-07-22T06:01:24;97612.00;;;33.30
80496;BMP180;69819;48.798;11.770;2023-07-22T06:03:52;97595.00;;;33.60
80496;BMP180;69819;48.798;11.770;2023-07-22T06:06:19;97611.00;;;33.90
80496;BMP180;69819;48.798;11.770;2023-07-22T06:08:45;97608.00;;;34.20
80496;BMP180;69819;48.798;11.770;2023-07-22T06:11:11;97610.00;;;34.60
80496;BMP180;69819;48.798;11.770;2023-07-22T06:13:37;97623.00;;;34.80
80496;BMP180;69819;48.798;11.770;2023-07-22T06:16:03;97583.00;;;35.10
80496;BMP180;69819;48.798;11.770;2023-07-22T06:18:29;97624.00;;;35.40
80496;BMP180;69819;48.798;11.770;2023-07-22T06:20:55;97589.00;;;35.70
80496;BMP180;69819;48.798;11.770;2023-07-22T06:23:21;97605.00;;;35.90
80496;BMP180;69819;48.798;11.770;2023-07-22T06:25:47;97626.00;;;36.20
80496;BMP180;69819;48.798;11.770;2023-07-22T06:28:12;97608.00;;;36.40
80496;BMP180;69819;48.798;11.770;2023-07-22T06:30:38;97623.00;;;36.70
80496;BMP180;69819;48.798;11.770;2023-07-22T06:33:04;97626.00;;;36.90
80496;BMP180;69819;48.798;11.770;2023-07-22T06:35:30;97621.00;;;37.20
80496;BMP180;69819;48.798;11.770;2023-07-22T06:37:56;97624.00;;;37.40
80496;BMP180;69819;48.798;11.770;2023-07-22T06:40:22;97625.00;;;37.70
80496;BMP180;69819;48.798;11.770;2023-07-22T06:42:48;97606.00;;;37.90
80496;BMP180;69819;48.798;11.770;2023-07-22T06:45:13;97638.00;;;38.10
80496;BMP180;69819;48.798;11.770;2023-07-22T06:47:39;97630.00;;;38.30
80496;BMP180;69819;48.798;11.770;2023-07-22T06:50:06;97630.00;;;38.50
80496;BMP180;69819;48.798;11.770;2023-07-22T06:52:32;97619.00;;;38.70
80496;BMP180;69819;48.798;11.770;2023-07-22T06:54:59;97628.00;;;38.90
80496;BMP180;69819;48.798;11.770;2023-07-22T06:57:24;97638.00;;;39.00
80496;BMP180;69819;48.798;11.770;2023-07-22T06:59:54;97636.00;;;39.10
80496;BMP180;69819;48.798;11.770;2023-07-22T07:02:20;97631.00;;;39.30
80496;BMP180;69819;48.798;11.770;2023-07-22T07:04:46;97634.00;;;39.50
80496;BMP180;69819;48.798;11.770;2023-07-22T07:07:14;97634.00;;;39.60
80496;BMP180;69819;48.798;11.770;2023-07-22T07:09:40;97638.00;;;39.80
80496;BMP180;69819;48.798;11.770;2023-07-22T07:12:07;97642.00;;;40.00
80496;BMP180;69819;48.798;11.770;2023-07-22T07:14:33;97631.00;;;40.20
80496;BMP180;69819;48.798;11.770;2023-07-22T07:17:00;97640.00;;;40.40
80496;BMP180;69819;48.798;11.770;2023-07-22T07:19:27;97646.00;;;40.60
80496;BMP180;69819;48.798;11.770;2023-07-22T07:21:53;97639.00;;;40.70
80496;BMP180;69819;48.798;11.770;2023-07-22T07:24:19;97627.00;;;40.80
80496;BMP180;69819;48.798;11.770;2023-07-22T07:26:45;97641.00;;;40.90
80496;BMP180;69819;48.798;11.770;2023-07-22T07:29:11;97647.00;;;41.10
80496;BMP180;69819;48.798;11.770;2023-07-22T07:31:39;97647.00;;;41.20
80496;BMP180;69819;48.798;11.770;2023-07-22T07:34:05;97659.00;;;41.40
80496;BMP180;69819;48.798;11.770;2023-07-22T07:36:35;97632.00;;;41.50
80496;BMP180;69819;48.798;11.770;2023-07-22T07:39:01;97647.00;;;41.60
80496;BMP180;69819;48.798;11.770;2023-07-22T07:41:27;97657.00;;;41.70
80496;BMP180;69819;48.798;11.770;2023-07-22T07:43:53;97663.00;;;41.80
80496;BMP180;69819;48.798;11.770;2023-07-22T07:46:29;97663.00;;;41.90
80496;BMP180;69819;48.798;11.770;2023-07-22T07:48:59;97663.00;;;42.00
80496;BMP180;69819;48.798;11.770;2023-07-22T07:51:28;97660.00;;;42.00
80496;BMP180;69819;48.798;11.770;2023-07-22T07:53:56;97663.00;;;42.10
80496;BMP180;69819;48.798;11.770;2023-07-22T07:56:24;97659.00;;;42.00
80496;BMP180;69819;48.798;11.770;2023-07-22T07:58:53;97664.00;;;41.90
80496;BMP180;69819;48.798;11.770;2023-07-22T08:01:19;97661.00;;;41.90
80496;BMP180;69819;48.798;11.770;2023-07-22T08:03:47;97661.00;;;41.90
80496;BMP180;69819;48.798;11.770;2023-07-22T08:06:13;97660.00;;;42.00
80496;BMP180;69819;48.798;11.770;2023-07-22T08:08:39;97645.00;;;42.00
80496;BMP180;69819;48.798;11.770;2023-07-22T08:11:11;97671.00;;;42.10
80496;BMP180;69819;48.798;11.770;2023-07-22T08:13:40;97673.00;;;42.10
80496;BMP180;69819;48.798;11.770;2023-07-22T08:16:09;97669.00;;;42.20
80496;BMP180;69819;48.798;11.770;2023-07-22T08:18:36;97653.00;;;42.30
80496;BMP180;69819;48.798;11.770;2023-07-22T08:21:04;97668.00;;;42.30
80496;BMP180;69819;48.798;11.770;2023-07-22T08:23:32;97671.00;;;42.40
80496;BMP180;69819;48.798;11.770;2023-07-22T08:25:58;97665.00;;;42.40
80496;BMP180;69819;48.798;11.770;2023-07-22T08:28:24;97663.00;;;42.50
80496;BMP180;69819;48.798;11.770;2023-07-22T08:30:50;97671.00;;;42.40
80496;BMP180;69819;48.798;11.770;2023-07-22T08:33:16;97666.00;;;42.40
80496;BMP180;69819;48.798;11.770;2023-07-22T08:35:42;97668.00;;;42.40
80496;BMP180;69819;48.798;11.770;2023-07-22T08:38:09;97654.00;;;42.50
80496;BMP180;69819;48.798;11.770;2023-07-22T08:40:40;97667.00;;;42.50
80496;BMP180;69819;48.798;11.770;2023-07-22T08:43:09;97669.00;;;42.50
80496;BMP180;69819;48.798;11.770;2023-07-22T08:45:38;97659.00;;;42.40
80496;BMP180;69819;48.798;11.770;2023-07-22T08:48:09;97664.00;;;42.20
80496;BMP180;69819;48.798;11.770;2023-07-22T08:51:03;97655.00;;;42.00
80496;BMP180;69819;48.798;11.770;2023-07-22T08:53:30;97656.00;;;41.80
80496;BMP180;69819;48.798;11.770;2023-07-22T08:55:59;97667.00;;;41.70
80496;BMP180;69819;48.798;11.770;2023-07-22T08:58:26;97658.00;;;41.60
80496;BMP180;69819;48.798;11.770;2023-07-22T09:00:52;97642.00;;;41.50
80496;BMP180;69819;48.798;11.770;2023-07-22T09:03:19;97662.00;;;41.50
80496;BMP180;69819;48.798;11.770;2023-07-22T09:05:46;97647.00;;;41.50
80496;BMP180;69819;48.798;11.770;2023-07-22T09:08:13;97648.00;;;41.40
80496;BMP180;69819;48.798;11.770;2023-07-22T09:10:40;97653.00;;;41.40
80496;BMP180;69819;48.798;11.770;2023-07-22T09:13:06;97654.00;;;41.30
80496;BMP180;69819;48.798;11.770;2023-07-22T09:15:36;97655.00;;;41.20
80496;BMP180;69819;48.798;11.770;2023-07-22T09:18:05;97650.00;;;41.20
80496;BMP180;69819;48.798;11.770;2023-07-22T09:20:31;97661.00;;;41.10
80496;BMP180;69819;48.798;11.770;2023-07-22T09:23:00;97654.00;;;41.00
80496;BMP180;69819;48.798;11.770;2023-07-22T09:25:28;97619.00;;;40.80
80496;BMP180;69819;48.798;11.770;2023-07-22T09:27:58;97650.00;;;40.80
80496;BMP180;69819;48.798;11.770;2023-07-22T09:30:37;97636.00;;;40.60
80496;BMP180;69819;48.798;11.770;2023-07-22T09:33:22;97612.00;;;40.60
80496;BMP180;69819;48.798;11.770;2023-07-22T09:35:49;97651.00;;;40.40
80496;BMP180;69819;48.798;11.770;2023-07-22T09:38:25;97645.00;;;40.10
80496;BMP180;69819;48.798;11.770;2023-07-22T09:40:52;97648.00;;;39.70
80496;BMP180;69819;48.798;11.770;2023-07-22T09:43:18;97639.00;;;39.30
80496;BMP180;69819;48.798;11.770;2023-07-22T09:45:48;97628.00;;;38.90
80496;BMP180;69819;48.798;11.770;2023-07-22T09:48:14;97643.00;;;38.50
80496;BMP180;69819;48.798;11.770;2023-07-22T09:50:40;97631.00;;;38.20
80496;BMP180;69819;48.798;11.770;2023-07-22T09:53:07;97638.00;;;37.90
80496;BMP180;69819;48.798;11.770;2023-07-22T09:55:34;97625.00;;;37.80
80496;BMP180;69819;48.798;11.770;2023-07-22T09:58:04;97634.00;;;37.70
80496;BMP180;69819;48.798;11.770;2023-07-22T10:00:37;97641.00;;;37.70
80496;BMP180;69819;48.798;11.770;2023-07-22T10:03:10;97637.00;;;37.60
80496;BMP180;69819;48.798;11.770;2023-07-22T10:05:39;97612.00;;;37.70
80496;BMP180;69819;48.798;11.770;2023-07-22T10:08:06;97630.00;;;37.60
80496;BMP180;69819;48.798;11.770;2023-07-22T10:10:35;97632.00;;;37.60
80496;BMP180;69819;48.798;11.770;2023-07-22T10:13:03;97625.00;;;37.40
80496;BMP180;69819;48.798;11.770;2023-07-22T10:15:34;97626.00;;;37.20
80496;BMP180;69819;48.798;11.770;2023-07-22T10:18:04;97613.00;;;36.80
80496;BMP180;69819;48.798;11.770;2023-07-22T10:20:34;97611.00;;;36.60
80496;BMP180;69819;48.798;11.770;2023-07-22T10:23:02;97613.00;;;36.40
80496;BMP180;69819;48.798;11.770;2023-07-22T10:25:30;97606.00;;;36.30
80496;BMP180;69819;48.798;11.770;2023-07-22T10:27:56;97601.00;;;36.20
80496;BMP180;69819;48.798;11.770;2023-07-22T10:30:22;97603.00;;;36.10
80496;BMP180;69819;48.798;11.770;2023-07-22T10:32:52;97590.00;;;36.00
80496;BMP180;69819;48.798;11.770;2023-07-22T10:38:14;97589.00;;;35.80
80496;BMP180;69819;48.798;11.770;2023-07-22T10:40:50;97592.00;;;35.70
80496;BMP180;69819;48.798;11.770;2023-07-22T10:43:19;97597.00;;;35.70
80496;BMP180;69819;48.798;11.770;2023-07-22T10:45:52;97585.00;;;35.60
80496;BMP180;69819;48.798;11.770;2023-07-22T10:48:20;97601.00;;;35.50
80496;BMP180;69819;48.798;11.770;2023-07-22T10:50:50;97561.00;;;35.30
80496;BMP180;69819;48.798;11.770;2023-07-22T10:56:15;97585.00;;;34.70
80496;BMP180;69819;48.798;11.770;2023-07-22T11:01:33;97580.00;;;34.30
80496;BMP180;69819;48.798;11.770;2023-07-22T11:04:25;97571.00;;;34.10
80496;BMP180;69819;48.798;11.770;2023-07-22T11:06:59;97572.00;;;34.00
80496;BMP180;69819;48.798;11.770;2023-07-22T11:12:01;97583.00;;;33.60
80496;BMP180;69819;48.798;11.770;2023-07-22T11:14:37;97570.00;;;33.60
80496;BMP180;69819;48.798;11.770;2023-07-22T11:17:07;97548.00;;;33.60
80496;BMP180;69819;48.798;11.770;2023-07-22T11:19:37;97561.00;;;33.50
80496;BMP180;69819;48.798;11.770;2023-07-22T11:22:04;97538.00;;;33.50
80496;BMP180;69819;48.798;11.770;2023-07-22T11:24:34;97546.00;;;33.40
80496;BMP180;69819;48.798;11.770;2023-07-22T11:27:06;97520.00;;;33.30
80496;BMP180;69819;48.798;11.770;2023-07-22T11:29:34;97553.00;;;33.30
80496;BMP180;69819;48.798;11.770;2023-07-22T11:32:02;97555.00;;;33.30
80496;BMP180;69819;48.798;11.770;2023-07-22T11:34:28;97554.00;;;33.30
80496;BMP180;69819;48.798;11.770;2023-07-22T11:36:56;97548.00;;;33.40
80496;BMP180;69819;48.798;11.770;2023-07-22T11:39:25;97542.00;;;33.40
80496;BMP180;69819;48.798;11.770;2023-07-22T11:41:53;97538.00;;;33.50
80496;BMP180;69819;48.798;11.770;2023-07-22T11:44:27;97533.00;;;33.40
80496;BMP180;69819;48.798;11.770;2023-07-22T11:47:06;97529.00;;;33.50
80496;BMP180;69819;48.798;11.770;2023-07-22T11:49:38;97525.00;;;33.50
80496;BMP180;69819;48.798;11.770;2023-07-22T11:52:10;97471.00;;;33.60
80496;BMP180;69819;48.798;11.770;2023-07-22T11:54:42;97528.00;;;33.60
80496;BMP180;69819;48.798;11.770;2023-07-22T11:57:22;97523.00;;;33.60
80496;BMP180;69819;48.798;11.770;2023-07-22T11:59:53;97523.00;;;33.70
80496;BMP180;69819;48.798;11.770;2023-07-22T12:02:27;97519.00;;;33.70
80496;BMP180;69819;48.798;11.770;2023-07-22T12:05:05;97513.00;;;33.70
80496;BMP180;69819;48.798;11.770;2023-07-22T12:07:38;97480.00;;;33.70
80496;BMP180;69819;48.798;11.770;2023-07-22T12:10:07;97504.00;;;33.80
80496;BMP180;69819;48.798;11.770;2023-07-22T12:12:46;97502.00;;;33.70
80496;BMP180;69819;48.798;11.770;2023-07-22T12:15:18;97513.00;;;33.70
80496;BMP180;69819;48.798;11.770;2023-07-22T12:17:58;97504.00;;;33.70
80496;BMP180;69819;48.798;11.770;2023-07-22T12:20:30;97496.00;;;33.60
80496;BMP180;69819;48.798;11.770;2023-07-22T12:22:57;97492.00;;;33.60
80496;BMP180;69819;48.798;11.770;2023-07-22T12:25:23;97494.00;;;33.50
80496;BMP180;69819;48.798;11.770;2023-07-22T12:27:49;97494.00;;;33.40
80496;BMP180;69819;48.798;11.770;2023-07-22T12:30:16;97493.00;;;33.20
80496;BMP180;69819;48.798;11.770;2023-07-22T12:32:42;97496.00;;;33.00
80496;BMP180;69819;48.798;11.770;2023-07-22T12:35:09;97493.00;;;32.80
80496;BMP180;69819;48.798;11.770;2023-07-22T12:37:35;97496.00;;;32.70
80496;BMP180;69819;48.798;11.770;2023-07-22T12:40:02;97483.00;;;32.60
80496;BMP180;69819;48.798;11.770;2023-07-22T12:42:30;97488.00;;;32.50
80496;BMP180;69819;48.798;11.770;2023-07-22T12:44:56;97473.00;;;32.40
80496;BMP180;69819;48.798;11.770;2023-07-22T12:47:22;97476.00;;;32.40
80496;BMP180;69819;48.798;11.770;2023-07-22T12:49:47;97466.00;;;32.30
80496;BMP180;69819;48.798;11.770;2023-07-22T12:52:13;97470.00;;;32.30
80496;BMP180;69819;48.798;11.770;2023-07-22T12:54:39;97460.00;;;32.30
80496;BMP180;69819;48.798;11.770;2023-07-22T12:57:05;97458.00;;;32.30
80496;BMP180;69819;48.798;11.770;2023-07-22T12:59:31;97464.00;;;32.30
80496;BMP180;69819;48.798;11.770;2023-07-22T13:01:57;97463.00;;;32.30
80496;BMP180;69819;48.798;11.770;2023-07-22T13:04:24;97458.00;;;32.30
80496;BMP180;69819;48.798;11.770;2023-07-22T13:06:51;97458.00;;;32.30
80496;BMP180;69819;48.798;11.770;2023-07-22T13:09:20;97449.00;;;32.30
80496;BMP180;69819;48.798;11.770;2023-07-22T13:11:46;97447.00;;;32.30
80496;BMP180;69819;48.798;11.770;2023-07-22T13:14:12;97442.00;;;32.30
80496;BMP180;69819;48.798;11.770;2023-07-22T13:16:38;97449.00;;;32.30
80496;BMP180;69819;48.798;11.770;2023-07-22T13:19:04;97447.00;;;32.30
80496;BMP180;69819;48.798;11.770;2023-07-22T13:21:30;97440.00;;;32.30
80496;BMP180;69819;48.798;11.770;2023-07-22T13:23:56;97411.00;;;32.40
80496;BMP180;69819;48.798;11.770;2023-07-22T13:26:22;97433.00;;;32.40
80496;BMP180;69819;48.798;11.770;2023-07-22T13:28:47;97430.00;;;32.40
80496;BMP180;69819;48.798;11.770;2023-07-22T13:31:13;97436.00;;;32.40
80496;BMP180;69819;48.798;11.770;2023-07-22T13:33:39;97442.00;;;32.30
80496;BMP180;69819;48.798;11.770;2023-07-22T13:36:07;97427.00;;;32.30
80496;BMP180;69819;48.798;11.770;2023-07-22T13:38:34;97410.00;;;32.30
80496;BMP180;69819;48.798;11.770;2023-07-22T13:41:00;97429.00;;;32.20
80496;BMP180;69819;48.798;11.770;2023-07-22T13:43:26;97440.00;;;32.20
80496;BMP180;69819;48.798;11.770;2023-07-22T13:45:53;97439.00;;;32.10
80496;BMP180;69819;48.798;11.770;2023-07-22T13:48:19;97447.00;;;32.00
80496;BMP180;69819;48.798;11.770;2023-07-22T13:50:45;97418.00;;;31.90
80496;BMP180;69819;48.798;11.770;2023-07-22T13:53:11;97431.00;;;31.90
80496;BMP180;69819;48.798;11.770;2023-07-22T13:55:37;97433.00;;;31.90
80496;BMP180;69819;48.798;11.770;2023-07-22T13:58:03;97426.00;;;31.80
80496;BMP180;69819;48.798;11.770;2023-07-22T14:00:28;97425.00;;;31.80
80496;BMP180;69819;48.798;11.770;2023-07-22T14:02:54;97400.00;;;31.80
80496;BMP180;69819;48.798;11.770;2023-07-22T14:05:20;97416.00;;;31.90
80496;BMP180;69819;48.798;11.770;2023-07-22T14:07:46;97420.00;;;31.90
80496;BMP180;69819;48.798;11.770;2023-07-22T14:10:12;97426.00;;;31.90